Time;durP1;ratioP1;P1;durP2;ratioP2;P2;SDS_P1;SDS_P2;PMS_P1;PMS_P2;Temp;Humidity;BMP_temperature;BMP_pressure;BME280_temperature;BME280_humidity;BME280_pressure;Samples;Min_cycle;Max_cycle;Signal;HPM_P1;HPM_P2
2023/06/08 00:01:40;;;;;;;17.95;9.70;;;;;;;;;;4424668;32;20071;-72
2023/06/08 00:04:07;;;;;;;24.48;10.57;;;;;;;;;;4422979;32;20052;-72
2023/06/08 00:06:33;;;;;;;17.15;10.63;;;;;;;;;;4422964;32;20018;-72
2023/06/08 00:08:59;;;;;;;23.80;11.65;;;;;;;;;;4437875;32;20017;-72
2023/06/08 00:11:25;;;;;;;20.40;11.32;;;;;;;;;;4437191;32;20060;-71
2023/06/08 00:13:50;;;;;;;19.62;10.82;;;;;;;;;;4436906;32;20403;-71
2023/06/08 00:16:17;;;;;;;21.40;11.07;;;;;;;;;;4436639;32;20044;-72
2023/06/08 00:18:44;;;;;;;20.55;10.93;;;;;;;;;;4438869;32;20029;-72
2023/06/08 00:21:12;;;;;;;23.70;10.98;;;;;;;;;;4436529;32;20091;-72
2023/06/08 00:23:38;;;;;;;24.25;10.93;;;;;;;;;;4437700;32;20068;-72
2023/06/08 00:26:03;;;;;;;20.70;10.40;;;;;;;;;;4436896;32;20022;-72
2023/06/08 00:28:28;;;;;;;23.85;11.23;;;;;;;;;;4423413;32;20100;-70
2023/06/08 00:30:54;;;;;;;18.95;10.43;;;;;;;;;;4438131;32;20049;-71
2023/06/08 00:33:19;;;;;;;26.20;12.60;;;;;;;;;;4437657;32;20096;-71
2023/06/08 00:35:44;;;;;;;21.15;10.68;;;;;;;;;;4437741;32;20147;-72
2023/06/08 00:38:09;;;;;;;16.95;10.27;;;;;;;;;;4422499;32;20061;-72
2023/06/08 00:40:35;;;;;;;20.65;10.88;;;;;;;;;;4436481;32;20025;-71
2023/06/08 00:43:00;;;;;;;21.75;12.10;;;;;;;;;;4436353;32;20376;-72
2023/06/08 00:45:25;;;;;;;22.20;12.07;;;;;;;;;;4435423;32;20033;-72
2023/06/08 00:47:50;;;;;;;21.23;11.38;;;;;;;;;;4437866;32;20082;-71
2023/06/08 00:50:16;;;;;;;22.70;11.20;;;;;;;;;;4437535;32;20014;-73
2023/06/08 00:52:42;;;;;;;20.92;11.65;;;;;;;;;;4437817;32;20098;-72
2023/06/08 00:55:08;;;;;;;32.83;13.62;;;;;;;;;;4422436;32;20409;-70
2023/06/08 00:57:34;;;;;;;24.90;11.73;;;;;;;;;;4437550;32;20052;-71
2023/06/08 01:00:04;;;;;;;18.00;11.48;;;;;;;;;;4422556;32;20227;-72
2023/06/08 01:02:30;;;;;;;26.87;13.05;;;;;;;;;;4436230;32;20110;-72
2023/06/08 01:04:56;;;;;;;22.90;11.43;;;;;;;;;;4438010;32;20041;-72
2023/06/08 01:07:31;;;;;;;28.15;11.63;;;;;;;;;;4437575;32;20044;-72
2023/06/08 01:10:09;;;;;;;21.58;10.88;;;;;;;;;;4436699;32;20026;-72
2023/06/08 01:12:46;;;;;;;22.83;12.05;;;;;;;;;;4436477;32;20033;-71
2023/06/08 01:15:13;;;;;;;23.70;12.27;;;;;;;;;;4436300;32;20042;-71
2023/06/08 01:17:40;;;;;;;18.25;10.60;;;;;;;;;;4438163;32;20045;-72
2023/06/08 01:20:08;;;;;;;24.40;12.32;;;;;;;;;;4437716;32;20052;-72
2023/06/08 01:22:46;;;;;;;18.70;12.13;;;;;;;;;;4435637;32;20017;-72
2023/06/08 01:25:12;;;;;;;26.20;12.23;;;;;;;;;;4435679;32;20045;-72
2023/06/08 01:27:38;;;;;;;20.02;11.80;;;;;;;;;;4436335;32;20067;-73
2023/06/08 01:30:04;;;;;;;22.50;12.60;;;;;;;;;;4434610;32;20014;-72
2023/06/08 01:32:30;;;;;;;23.73;12.02;;;;;;;;;;4435596;32;20410;-72
2023/06/08 01:34:55;;;;;;;24.37;13.50;;;;;;;;;;4435996;32;20022;-72
2023/06/08 01:37:26;;;;;;;27.40;13.27;;;;;;;;;;4435813;32;20066;-72
2023/06/08 01:39:55;;;;;;;28.58;12.43;;;;;;;;;;4435359;32;20021;-73
2023/06/08 01:42:22;;;;;;;30.23;12.90;;;;;;;;;;4447529;32;20090;-73
2023/06/08 01:44:52;;;;;;;23.33;11.15;;;;;;;;;;4451533;32;20100;-73
2023/06/08 01:47:18;;;;;;;21.17;12.48;;;;;;;;;;4451252;32;20398;-73
2023/06/08 01:49:44;;;;;;;24.30;12.90;;;;;;;;;;4438325;32;20029;-72
2023/06/08 01:52:09;;;;;;;22.58;12.05;;;;;;;;;;4436035;32;20437;-72
2023/06/08 01:54:35;;;;;;;22.73;11.35;;;;;;;;;;4421683;32;20030;-72
2023/06/08 01:57:00;;;;;;;;;;;;;;;;;;4437120;32;20382;-72
2023/06/08 01:59:25;;;;;;;21.20;11.23;;;;;;;;;;4436542;32;19984;-73
2023/06/08 02:01:50;;;;;;;17.95;11.48;;;;;;;;;;4436975;32;20143;-73
2023/06/08 02:04:15;;;;;;;25.37;12.80;;;;;;;;;;4435790;32;20021;-72
2023/06/08 02:06:41;;;;;;;20.65;11.50;;;;;;;;;;4435631;32;20069;-71
2023/06/08 02:09:06;;;;;;;19.05;11.70;;;;;;;;;;4435495;32;20347;-72
2023/06/08 02:11:31;;;;;;;21.10;11.95;;;;;;;;;;4436801;32;20063;-71
2023/06/08 02:13:56;;;;;;;22.10;11.57;;;;;;;;;;4437394;32;20017;-72
2023/06/08 02:16:22;;;;;;;27.20;12.55;;;;;;;;;;4435531;32;20429;-72
2023/06/08 02:18:50;;;;;;;29.83;11.88;;;;;;;;;;4421491;32;20021;-72
2023/06/08 02:21:15;;;;;;;24.98;11.77;;;;;;;;;;4437006;32;20313;-72
2023/06/08 02:23:40;;;;;;;18.25;12.23;;;;;;;;;;4435936;32;20062;-73
2023/06/08 02:26:07;;;;;;;24.42;12.37;;;;;;;;;;4421170;32;20109;-72
2023/06/08 02:28:32;;;;;;;21.52;12.90;;;;;;;;;;4435288;32;20022;-72
2023/06/08 02:30:57;;;;;;;20.60;12.68;;;;;;;;;;4421479;32;20025;-72
2023/06/08 02:33:22;;;;;;;24.02;13.85;;;;;;;;;;4421454;32;20022;-72
2023/06/08 02:35:48;;;;;;;21.83;12.82;;;;;;;;;;4436729;32;20071;-72
2023/06/08 02:38:13;;;;;;;26.42;14.32;;;;;;;;;;4437243;32;20382;-72
2023/06/08 02:40:38;;;;;;;22.95;12.55;;;;;;;;;;4436245;32;20046;-73
2023/06/08 02:43:04;;;;;;;27.85;13.02;;;;;;;;;;4435075;32;20017;-72
2023/06/08 02:45:30;;;;;;;20.40;12.55;;;;;;;;;;4435493;32;20049;-72
2023/06/08 02:47:55;;;;;;;21.05;12.32;;;;;;;;;;4435379;32;20404;-72
2023/06/08 02:50:22;;;;;;;20.02;11.95;;;;;;;;;;4435044;32;20015;-72
2023/06/08 02:52:48;;;;;;;28.90;12.02;;;;;;;;;;4436897;32;20059;-72
2023/06/08 02:55:13;;;;;;;21.77;12.85;;;;;;;;;;4420698;32;20431;-71
2023/06/08 02:57:38;;;;;;;23.05;11.82;;;;;;;;;;4434527;32;20458;-73
2023/06/08 03:00:07;;;;;;;17.62;11.70;;;;;;;;;;4420844;32;20061;-72
2023/06/08 03:02:33;;;;;;;25.60;12.43;;;;;;;;;;4436848;32;20037;-73
2023/06/08 03:05:02;;;;;;;21.87;11.35;;;;;;;;;;4435557;32;20262;-72
2023/06/08 03:07:28;;;;;;;22.20;12.52;;;;;;;;;;4435414;32;20030;-72
2023/06/08 03:09:53;;;;;;;24.33;13.35;;;;;;;;;;4439339;32;20049;-73
2023/06/08 03:12:18;;;;;;;;;;;;;;;;;;4438063;32;20044;-73
2023/06/08 03:14:44;;;;;;;23.92;12.65;;;;;;;;;;4439088;32;19937;-71
2023/06/08 03:17:10;;;;;;;20.95;11.95;;;;;;;;;;4438779;32;20055;-72
2023/06/08 03:19:35;;;;;;;17.85;13.05;;;;;;;;;;4437348;32;20080;-72
2023/06/08 03:22:02;;;;;;;19.60;11.82;;;;;;;;;;4439182;32;20296;-72
2023/06/08 03:24:28;;;;;;;21.40;13.55;;;;;;;;;;4439131;32;20029;-72
2023/06/08 03:26:54;;;;;;;22.92;13.48;;;;;;;;;;4438737;32;20060;-72
2023/06/08 03:29:19;;;;;;;18.25;12.40;;;;;;;;;;4424499;32;20061;-72
2023/06/08 03:31:44;;;;;;;21.30;12.77;;;;;;;;;;4424064;32;20026;-71
2023/06/08 03:34:09;;;;;;;;;;;;;;;;;;4425322;32;20021;-72
2023/06/08 03:36:35;;;;;;;23.60;13.43;;;;;;;;;;4424325;32;19937;-71
2023/06/08 03:39:01;;;;;;;20.02;13.98;;;;;;;;;;4423325;32;20319;-72
2023/06/08 03:41:27;;;;;;;22.30;12.98;;;;;;;;;;4427453;32;20125;-72
2023/06/08 03:43:52;;;;;;;23.85;13.13;;;;;;;;;;4454204;32;20026;-72
2023/06/08 03:46:17;;;;;;;21.25;13.25;;;;;;;;;;4439368;32;20017;-72
2023/06/08 03:48:42;;;;;;;24.10;14.07;;;;;;;;;;4438912;32;20045;-72
2023/06/08 03:51:08;;;;;;;20.70;13.07;;;;;;;;;;4437959;32;20383;-72
2023/06/08 03:53:33;;;;;;;21.52;13.77;;;;;;;;;;4442778;32;20203;-72
2023/06/08 03:55:58;;;;;;;28.10;14.90;;;;;;;;;;4453868;32;20064;-72
2023/06/08 03:58:24;;;;;;;;;;;;;;;;;;4453886;32;20147;-71
2023/06/08 04:00:49;;;;;;;23.00;13.00;;;;;;;;;;4438825;32;20339;-73
2023/06/08 04:03:14;;;;;;;27.08;13.82;;;;;;;;;;4452272;32;20401;-73
2023/06/08 04:05:40;;;;;;;21.95;13.45;;;;;;;;;;4452701;32;20057;-72
2023/06/08 04:08:05;;;;;;;29.17;15.48;;;;;;;;;;4426566;32;20362;-72
2023/06/08 04:10:31;;;;;;;22.33;14.20;;;;;;;;;;4436795;32;20034;-72
2023/06/08 04:12:56;;;;;;;23.73;14.43;;;;;;;;;;4437791;32;20363;-73
2023/06/08 04:15:23;;;;;;;22.65;13.90;;;;;;;;;;4436676;32;20048;-73
2023/06/08 04:17:49;;;;;;;24.00;14.38;;;;;;;;;;4438310;32;20063;-73
2023/06/08 04:20:15;;;;;;;28.52;13.90;;;;;;;;;;4436624;32;20096;-72
2023/06/08 04:22:40;;;;;;;19.90;13.85;;;;;;;;;;4422724;32;20076;-72
2023/06/08 04:25:05;;;;;;;;;;;;;;;;;;4436788;32;20105;-72
2023/06/08 04:27:31;;;;;;;24.60;13.20;;;;;;;;;;4437243;32;20274;-72
2023/06/08 04:29:57;;;;;;;24.55;13.93;;;;;;;;;;4436647;32;20026;-73
2023/06/08 04:32:22;;;;;;;22.27;13.80;;;;;;;;;;4438336;32;20073;-72
2023/06/08 04:34:47;;;;;;;;;;;;;;;;;;4437164;32;20430;-73
2023/06/08 04:37:13;;;;;;;22.52;13.43;;;;;;;;;;4436367;32;20340;-72
2023/06/08 04:39:38;;;;;;;24.02;13.40;;;;;;;;;;4422458;32;20026;-73
2023/06/08 04:42:05;;;;;;;18.85;13.20;;;;;;;;;;4437611;32;20139;-73
2023/06/08 04:44:32;;;;;;;23.65;14.70;;;;;;;;;;4437305;32;20351;-72
2023/06/08 04:46:57;;;;;;;21.55;14.80;;;;;;;;;;4436624;32;20124;-73
2023/06/08 04:49:22;;;;;;;22.25;14.80;;;;;;;;;;4423565;32;20048;-73
2023/06/08 04:51:48;;;;;;;24.02;13.52;;;;;;;;;;4436180;32;20029;-73
2023/06/08 04:54:13;;;;;;;28.77;14.35;;;;;;;;;;4449220;32;20427;-73
2023/06/08 04:56:42;;;;;;;21.30;13.65;;;;;;;;;;4439104;32;20415;-72
2023/06/08 04:59:10;;;;;;;21.37;13.48;;;;;;;;;;4449473;32;20021;-72
2023/06/08 05:01:35;;;;;;;27.87;13.43;;;;;;;;;;4436055;32;20074;-73
2023/06/08 05:04:01;;;;;;;24.98;14.87;;;;;;;;;;4446242;32;20026;-73
2023/06/08 05:06:26;;;;;;;27.10;14.27;;;;;;;;;;4451406;32;20347;-72
2023/06/08 05:08:52;;;;;;;19.97;13.70;;;;;;;;;;4452845;32;20037;-72
2023/06/08 05:11:17;;;;;;;27.87;14.95;;;;;;;;;;4454147;32;20219;-72
2023/06/08 05:13:42;;;;;;;27.30;15.88;;;;;;;;;;4453009;32;20084;-73
2023/06/08 05:16:10;;;;;;;21.50;13.60;;;;;;;;;;4438341;32;20067;-73
2023/06/08 05:18:35;;;;;;;22.60;13.73;;;;;;;;;;4451179;32;20033;-71
2023/06/08 05:21:00;;;;;;;27.58;14.73;;;;;;;;;;4438413;32;20069;-72
2023/06/08 05:23:25;;;;;;;24.30;14.77;;;;;;;;;;4451123;32;20358;-72
2023/06/08 05:25:51;;;;;;;20.55;14.35;;;;;;;;;;4451631;32;20022;-71
2023/06/08 05:28:17;;;;;;;19.48;12.70;;;;;;;;;;4452839;32;20022;-73
2023/06/08 05:30:42;;;;;;;23.30;12.68;;;;;;;;;;4451944;32;20448;-71
2023/06/08 05:33:07;;;;;;;21.87;13.38;;;;;;;;;;4451173;32;20021;-71
2023/06/08 05:35:33;;;;;;;24.67;13.27;;;;;;;;;;4451350;32;20048;-71
2023/06/08 05:37:58;;;;;;;25.13;13.57;;;;;;;;;;4451297;32;20387;-71
2023/06/08 05:40:23;;;;;;;20.23;12.68;;;;;;;;;;4438424;32;20124;-72
2023/06/08 05:42:48;;;;;;;21.55;12.65;;;;;;;;;;4439144;32;20025;-72
2023/06/08 05:45:14;;;;;;;20.48;12.70;;;;;;;;;;4422013;32;20097;-72
2023/06/08 05:47:39;;;;;;;20.58;12.95;;;;;;;;;;4421763;32;20072;-72
2023/06/08 05:50:04;;;;;;;20.62;13.50;;;;;;;;;;4439461;32;20029;-72
2023/06/08 05:52:31;;;;;;;22.17;12.73;;;;;;;;;;4435771;32;20372;-72
2023/06/08 05:54:58;;;;;;;22.45;13.43;;;;;;;;;;4435460;32;20068;-73
2023/06/08 05:57:23;;;;;;;26.17;13.73;;;;;;;;;;4421322;32;20101;-72
2023/06/08 05:59:48;;;;;;;21.80;13.43;;;;;;;;;;4422845;32;20048;-73
2023/06/08 06:02:13;;;;;;;23.83;12.68;;;;;;;;;;4421053;32;20022;-73
2023/06/08 06:04:40;;;;;;;21.47;14.63;;;;;;;;;;4435998;32;20014;-72
2023/06/08 06:07:06;;;;;;;27.17;13.43;;;;;;;;;;4435178;32;20522;-72
2023/06/08 06:09:31;;;;;;;24.52;13.82;;;;;;;;;;4421346;32;20017;-72
2023/06/08 06:11:56;;;;;;;18.40;13.32;;;;;;;;;;4421698;32;20018;-72
2023/06/08 06:14:21;;;;;;;23.77;12.93;;;;;;;;;;4435220;32;20066;-72
2023/06/08 06:16:47;;;;;;;31.33;12.23;;;;;;;;;;4420172;32;20040;-72
2023/06/08 06:19:12;;;;;;;23.48;13.43;;;;;;;;;;4435612;32;20060;-72
2023/06/08 06:21:37;;;;;;;17.55;12.85;;;;;;;;;;4441718;32;20358;-72
2023/06/08 06:24:02;;;;;;;24.08;13.27;;;;;;;;;;4451169;32;20018;-70
2023/06/08 06:26:28;;;;;;;17.27;13.35;;;;;;;;;;4436532;32;20411;-71
2023/06/08 06:28:53;;;;;;;22.70;13.02;;;;;;;;;;4431479;32;20041;-72
2023/06/08 06:31:18;;;;;;;22.07;12.20;;;;;;;;;;4437221;32;20362;-71
2023/06/08 06:33:44;;;;;;;28.77;14.65;;;;;;;;;;4444405;32;20121;-72
2023/06/08 06:36:09;;;;;;;24.02;12.20;;;;;;;;;;4450163;32;20445;-72
2023/06/08 06:38:34;;;;;;;21.90;11.77;;;;;;;;;;4439462;32;20120;-71
2023/06/08 06:40:59;;;;;;;21.55;12.75;;;;;;;;;;4436927;32;20087;-71
2023/06/08 06:43:25;;;;;;;19.77;12.37;;;;;;;;;;4438115;32;20022;-71
2023/06/08 06:45:50;;;;;;;20.77;12.00;;;;;;;;;;4437838;32;20532;-71
2023/06/08 06:48:19;;;;;;;21.67;10.43;;;;;;;;;;4437867;32;20051;-70
2023/06/08 06:50:44;;;;;;;20.62;12.37;;;;;;;;;;4439263;32;20021;-71
2023/06/08 06:53:10;;;;;;;20.45;11.18;;;;;;;;;;4443622;32;20410;-73
2023/06/08 06:55:35;;;;;;;18.10;11.25;;;;;;;;;;4437317;32;20081;-71
2023/06/08 06:58:02;;;;;;;19.50;10.88;;;;;;;;;;4443764;32;20033;-72
2023/06/08 07:00:29;;;;;;;16.17;11.23;;;;;;;;;;4431992;32;20056;-71
2023/06/08 07:02:56;;;;;;;18.87;9.90;;;;;;;;;;4437670;32;20030;-73
2023/06/08 07:05:21;;;;;;;16.77;10.07;;;;;;;;;;4423649;32;20021;-71
2023/06/08 07:07:46;;;;;;;17.27;9.88;;;;;;;;;;4423427;32;20048;-70
2023/06/08 07:10:11;;;;;;;19.37;9.80;;;;;;;;;;4437629;32;20030;-71
2023/06/08 07:12:36;;;;;;;18.35;10.13;;;;;;;;;;4437691;32;20022;-70
2023/06/08 07:15:02;;;;;;;17.45;9.93;;;;;;;;;;4437401;32;20089;-71
2023/06/08 07:17:27;;;;;;;20.75;10.77;;;;;;;;;;4439189;32;20143;-72
2023/06/08 07:19:53;;;;;;;18.10;9.80;;;;;;;;;;4437108;32;20049;-71
2023/06/08 07:22:18;;;;;;;22.05;10.13;;;;;;;;;;4438860;32;20113;-71
2023/06/08 07:24:43;;;;;;;16.27;9.70;;;;;;;;;;4430182;32;20396;-70
2023/06/08 07:27:08;;;;;;;24.05;10.85;;;;;;;;;;4438254;32;20063;-72
2023/06/08 07:29:33;;;;;;;22.27;11.27;;;;;;;;;;4435766;32;20049;-72
2023/06/08 07:31:59;;;;;;;17.83;9.77;;;;;;;;;;4436010;32;20029;-71
2023/06/08 07:34:25;;;;;;;16.15;9.73;;;;;;;;;;4444275;32;20080;-71
2023/06/08 07:36:50;;;;;;;23.35;11.55;;;;;;;;;;4431467;32;20070;-72
2023/06/08 07:39:16;;;;;;;24.10;10.18;;;;;;;;;;4448263;32;20355;-71
2023/06/08 07:41:41;;;;;;;16.42;10.95;;;;;;;;;;4435018;32;20048;-70
2023/06/08 07:44:06;;;;;;;19.87;11.13;;;;;;;;;;4437044;32;20095;-71
2023/06/08 07:46:31;;;;;;;26.55;11.35;;;;;;;;;;4453728;32;20526;-72
2023/06/08 07:48:57;;;;;;;20.92;11.35;;;;;;;;;;4454633;32;20489;-71
2023/06/08 07:51:22;;;;;;;19.08;10.05;;;;;;;;;;4439536;32;20097;-70
2023/06/08 07:53:48;;;;;;;18.77;10.55;;;;;;;;;;4451565;32;20082;-70
2023/06/08 07:56:13;;;;;;;20.50;10.80;;;;;;;;;;4441988;32;20025;-72
2023/06/08 07:58:38;;;;;;;16.62;10.55;;;;;;;;;;4436917;32;20017;-70
2023/06/08 08:01:03;;;;;;;22.73;11.55;;;;;;;;;;4435794;32;20385;-70
2023/06/08 08:03:29;;;;;;;18.90;11.73;;;;;;;;;;4447936;32;20074;-71
2023/06/08 08:05:55;;;;;;;24.20;12.23;;;;;;;;;;4434138;32;20039;-71
2023/06/08 08:08:20;;;;;;;25.40;12.40;;;;;;;;;;4442148;32;20061;-71
2023/06/08 08:10:45;;;;;;;22.73;10.52;;;;;;;;;;4424742;32;20056;-72
2023/06/08 08:13:12;;;;;;;21.00;11.27;;;;;;;;;;4422950;32;20038;-71
2023/06/08 08:15:39;;;;;;;23.38;11.70;;;;;;;;;;4422542;32;20017;-72
2023/06/08 08:18:04;;;;;;;22.10;12.20;;;;;;;;;;4422518;32;20063;-71
2023/06/08 08:20:29;;;;;;;25.77;10.85;;;;;;;;;;4437062;32;20046;-71
2023/06/08 08:22:55;;;;;;;19.83;11.43;;;;;;;;;;4436463;32;20018;-70
2023/06/08 08:25:20;;;;;;;21.13;12.37;;;;;;;;;;4422072;32;20133;-70
2023/06/08 08:27:46;;;;;;;25.65;11.77;;;;;;;;;;4437412;32;20135;-71
2023/06/08 08:30:11;;;;;;;19.17;10.45;;;;;;;;;;4436610;32;20021;-71
2023/06/08 08:32:36;;;;;;;20.67;11.32;;;;;;;;;;4436569;32;20064;-70
2023/06/08 08:35:02;;;;;;;18.70;10.88;;;;;;;;;;4439419;32;20399;-70
2023/06/08 08:37:27;;;;;;;21.90;11.43;;;;;;;;;;4428245;32;20071;-71
2023/06/08 08:39:52;;;;;;;21.23;11.57;;;;;;;;;;4442931;32;20025;-70
2023/06/08 08:42:21;;;;;;;20.50;11.10;;;;;;;;;;4448397;32;20026;-71
2023/06/08 08:44:49;;;;;;;17.77;10.38;;;;;;;;;;4447045;32;20030;-70
2023/06/08 08:47:14;;;;;;;20.52;10.38;;;;;;;;;;4437149;32;20059;-70
2023/06/08 08:49:42;;;;;;;17.45;11.18;;;;;;;;;;4435775;32;20053;-71
2023/06/08 08:52:08;;;;;;;18.77;9.68;;;;;;;;;;4435927;32;20018;-70
2023/06/08 08:54:34;;;;;;;16.73;9.73;;;;;;;;;;4435020;32;20116;-71
2023/06/08 08:57:00;;;;;;;15.65;10.63;;;;;;;;;;4435071;32;20018;-72
2023/06/08 08:59:28;;;;;;;18.75;10.75;;;;;;;;;;4437671;32;20026;-72
2023/06/08 09:01:54;;;;;;;17.60;10.73;;;;;;;;;;4438762;32;20079;-71
2023/06/08 09:04:19;;;;;;;24.48;10.68;;;;;;;;;;4437325;32;20094;-72
2023/06/08 09:06:47;;;;;;;23.45;10.98;;;;;;;;;;4435430;32;20022;-72
2023/06/08 09:09:13;;;;;;;19.55;9.93;;;;;;;;;;4438015;32;20033;-70
2023/06/08 09:11:58;;;;;;;12.65;8.73;;;;;;;;;;4437433;32;20045;-72
2023/06/08 09:14:23;;;;;;;17.90;9.95;;;;;;;;;;4440275;32;20397;-70
2023/06/08 09:16:49;;;;;;;21.10;9.60;;;;;;;;;;4436817;32;20026;-71
2023/06/08 09:19:15;;;;;;;22.15;11.38;;;;;;;;;;4436021;32;20017;-71
2023/06/08 09:21:43;;;;;;;19.73;10.30;;;;;;;;;;4445315;32;20166;-71
2023/06/08 09:24:11;;;;;;;22.58;10.73;;;;;;;;;;4452678;32;20096;-72
2023/06/08 09:26:37;;;;;;;17.10;8.95;;;;;;;;;;4447203;32;20041;-71
2023/06/08 09:29:03;;;;;;;17.90;9.77;;;;;;;;;;4423853;32;20109;-70
2023/06/08 09:31:31;;;;;;;14.30;9.50;;;;;;;;;;4422361;32;20034;-72
2023/06/08 09:34:06;;;;;;;17.62;10.18;;;;;;;;;;4421616;32;20051;-71
2023/06/08 09:36:35;;;;;;;17.57;10.47;;;;;;;;;;4434999;32;20044;-72
2023/06/08 09:39:03;;;;;;;17.75;8.98;;;;;;;;;;4435184;32;20206;-71
2023/06/08 09:41:28;;;;;;;14.87;9.43;;;;;;;;;;4435760;32;20029;-72
2023/06/08 09:43:54;;;;;;;16.15;9.55;;;;;;;;;;4435405;32;20100;-72
2023/06/08 09:46:35;;;;;;;14.67;9.93;;;;;;;;;;4434467;32;20029;-71
2023/06/08 09:49:02;;;;;;;14.80;9.38;;;;;;;;;;4436463;32;20179;-71
2023/06/08 09:51:27;;;;;;;19.90;9.88;;;;;;;;;;4436608;32;20026;-74
2023/06/08 09:53:57;;;;;;;15.10;9.93;;;;;;;;;;4434912;32;20079;-73
2023/06/08 09:56:23;;;;;;;15.18;9.40;;;;;;;;;;4434623;32;20025;-72
2023/06/08 09:58:58;;;;;;;18.65;8.93;;;;;;;;;;4433874;32;20071;-72
2023/06/08 10:01:27;;;;;;;17.05;9.73;;;;;;;;;;4435558;32;20403;-70
2023/06/08 10:10:19;;;;;;;19.12;11.70;;;;;;;;;;4357268;32;20505;-75
2023/06/08 10:12:45;;;;;;;17.42;10.57;;;;;;;;;;4365638;32;20020;-72
2023/06/08 10:15:10;;;;;;;16.10;10.23;;;;;;;;;;4451581;32;20075;-71
2023/06/08 10:17:36;;;;;;;23.08;10.90;;;;;;;;;;4452645;32;20073;-71
2023/06/08 10:20:02;;;;;;;19.08;10.50;;;;;;;;;;4452449;32;20025;-71
2023/06/08 10:22:27;;;;;;;16.02;9.32;;;;;;;;;;4441898;32;20026;-71
2023/06/08 10:24:53;;;;;;;21.10;9.57;;;;;;;;;;4443275;32;20068;-70
2023/06/08 10:27:25;;;;;;;15.70;9.48;;;;;;;;;;4434704;32;20070;-71
2023/06/08 10:29:54;;;;;;;16.40;9.57;;;;;;;;;;4453055;32;20073;-70
2023/06/08 10:32:20;;;;;;;18.10;9.50;;;;;;;;;;4438036;32;20034;-70
2023/06/08 10:34:45;;;;;;;15.90;10.05;;;;;;;;;;4450974;32;20084;-72
2023/06/08 10:37:30;;;;;;;14.87;9.60;;;;;;;;;;4451600;32;20048;-72
2023/06/08 10:39:56;;;;;;;15.57;9.32;;;;;;;;;;4453927;32;20025;-72
2023/06/08 10:42:21;;;;;;;21.37;10.02;;;;;;;;;;4439118;32;20062;-71
2023/06/08 10:44:53;;;;;;;18.98;10.13;;;;;;;;;;4453412;32;20029;-70
2023/06/08 10:47:19;;;;;;;19.12;9.50;;;;;;;;;;4454181;32;20055;-73
2023/06/08 10:49:45;;;;;;;24.35;10.95;;;;;;;;;;4453823;32;20025;-74
2023/06/08 10:52:16;;;;;;;19.67;10.57;;;;;;;;;;4453147;32;20360;-73
2023/06/08 10:54:48;;;;;;;15.88;10.60;;;;;;;;;;4439015;32;20120;-74
2023/06/08 10:57:33;;;;;;;14.90;10.45;;;;;;;;;;4439543;32;20418;-73
2023/06/08 10:59:58;;;;;;;17.45;9.95;;;;;;;;;;4439507;32;20134;-74
2023/06/08 11:02:23;;;;;;;18.95;10.63;;;;;;;;;;4453773;32;20013;-73
2023/06/08 11:04:49;;;;;;;18.55;10.25;;;;;;;;;;4453581;32;20085;-74
2023/06/08 11:07:14;;;;;;;15.30;9.65;;;;;;;;;;4453273;32;20036;-72
2023/06/08 11:09:39;;;;;;;14.35;10.68;;;;;;;;;;4454218;32;20087;-73
2023/06/08 11:12:05;;;;;;;22.10;10.45;;;;;;;;;;4440467;32;20021;-74
2023/06/08 11:14:31;;;;;;;15.80;9.95;;;;;;;;;;4453995;32;20057;-74
2023/06/08 11:16:56;;;;;;;18.55;10.38;;;;;;;;;;4454460;32;20108;-74
2023/06/08 11:19:22;;;;;;;20.08;11.00;;;;;;;;;;4453436;32;20018;-74
2023/06/08 11:21:50;;;;;;;18.75;10.15;;;;;;;;;;4453437;32;20088;-74
2023/06/08 11:24:16;;;;;;;17.45;9.73;;;;;;;;;;4439887;32;20078;-74
2023/06/08 11:26:41;;;;;;;14.85;9.98;;;;;;;;;;4435304;32;20375;-73
2023/06/08 11:29:07;;;;;;;21.30;9.85;;;;;;;;;;4436919;32;20486;-73
2023/06/08 11:31:39;;;;;;;16.73;10.18;;;;;;;;;;4438843;32;20022;-71
2023/06/08 11:34:05;;;;;;;17.67;9.32;;;;;;;;;;4438503;32;20048;-73
2023/06/08 11:36:30;;;;;;;14.50;9.35;;;;;;;;;;4437790;32;20045;-73
2023/06/08 11:38:55;;;;;;;17.08;8.90;;;;;;;;;;4437531;32;20025;-73
2023/06/08 11:41:22;;;;;;;17.45;9.43;;;;;;;;;;4438111;32;20363;-72
2023/06/08 11:43:48;;;;;;;29.63;12.63;;;;;;;;;;4437871;32;20022;-73
2023/06/08 11:46:14;;;;;;;16.02;9.38;;;;;;;;;;4437003;32;20340;-72
2023/06/08 11:48:39;;;;;;;16.65;9.50;;;;;;;;;;4437548;32;20100;-73
2023/06/08 11:51:04;;;;;;;17.27;8.63;;;;;;;;;;4438581;32;20381;-73
2023/06/08 11:53:29;;;;;;;15.50;9.57;;;;;;;;;;4436646;32;20176;-73
2023/06/08 11:55:56;;;;;;;12.27;8.35;;;;;;;;;;4436911;32;20092;-72
2023/06/08 11:58:25;;;;;;;18.65;9.15;;;;;;;;;;4423521;32;20391;-72
2023/06/08 12:00:50;;;;;;;15.25;7.82;;;;;;;;;;4436867;32;20053;-73
2023/06/08 12:03:15;;;;;;;16.63;8.90;;;;;;;;;;4423349;32;20041;-73
2023/06/08 12:05:43;;;;;;;16.05;10.13;;;;;;;;;;4423058;32;20117;-73
2023/06/08 12:08:16;;;;;;;15.40;9.15;;;;;;;;;;4436686;32;20018;-72
2023/06/08 12:10:42;;;;;;;12.48;7.60;;;;;;;;;;4437679;32;20148;-72
2023/06/08 12:13:09;;;;;;;12.35;7.93;;;;;;;;;;4437038;32;20021;-71
2023/06/08 12:15:44;;;;;;;16.12;8.13;;;;;;;;;;4437613;32;20112;-71
2023/06/08 12:18:13;;;;;;;14.25;8.90;;;;;;;;;;4438584;32;20449;-72
2023/06/08 12:20:39;;;;;;;20.83;8.88;;;;;;;;;;4438107;32;20022;-70
2023/06/08 12:23:04;;;;;;;13.68;8.15;;;;;;;;;;4437541;32;20048;-72
2023/06/08 12:25:30;;;;;;;15.55;7.68;;;;;;;;;;4422480;32;20534;-72
2023/06/08 12:27:55;;;;;;;15.25;7.82;;;;;;;;;;4437334;32;20044;-70
2023/06/08 12:30:23;;;;;;;16.05;8.30;;;;;;;;;;4437683;32;20042;-72
2023/06/08 12:32:48;;;;;;;19.37;8.52;;;;;;;;;;4423026;32;20407;-71
2023/06/08 12:35:15;;;;;;;13.45;7.97;;;;;;;;;;4422375;32;20044;-71
2023/06/08 12:37:40;;;;;;;12.15;7.37;;;;;;;;;;4436198;32;20053;-71
2023/06/08 12:40:06;;;;;;;11.65;7.35;;;;;;;;;;4438146;32;20018;-72
2023/06/08 12:42:31;;;;;;;14.18;7.40;;;;;;;;;;4436769;32;20330;-70
2023/06/08 12:44:57;;;;;;;15.20;7.47;;;;;;;;;;4436558;32;20037;-71
2023/06/08 12:47:22;;;;;;;15.80;7.22;;;;;;;;;;4436157;32;20319;-71
2023/06/08 12:49:47;;;;;;;16.90;8.40;;;;;;;;;;4433379;32;20056;-71
2023/06/08 12:52:14;;;;;;;16.17;8.18;;;;;;;;;;4435645;32;20212;-72
2023/06/08 12:54:39;;;;;;;17.20;7.62;;;;;;;;;;4436278;32;20033;-72
2023/06/08 12:57:05;;;;;;;13.23;6.80;;;;;;;;;;4436120;32;20231;-71
2023/06/08 12:59:30;;;;;;;11.82;6.82;;;;;;;;;;4436317;32;20053;-71
2023/06/08 13:01:55;;;;;;;12.53;6.80;;;;;;;;;;4436397;32;20385;-71
2023/06/08 13:04:20;;;;;;;11.18;6.53;;;;;;;;;;4422344;32;20128;-72
2023/06/08 13:06:46;;;;;;;11.70;6.33;;;;;;;;;;4421648;32;20104;-71
2023/06/08 13:09:11;;;;;;;14.55;6.65;;;;;;;;;;4436504;32;20188;-72
2023/06/08 13:11:36;;;;;;;9.63;6.50;;;;;;;;;;4436170;32;20018;-72
2023/06/08 13:14:02;;;;;;;11.02;6.65;;;;;;;;;;4421724;32;20040;-73
2023/06/08 13:16:27;;;;;;;17.50;6.80;;;;;;;;;;4422137;32;20018;-71
2023/06/08 13:18:53;;;;;;;15.27;6.93;;;;;;;;;;4435622;32;20022;-71
2023/06/08 13:21:18;;;;;;;12.68;6.50;;;;;;;;;;4421805;32;20404;-72
2023/06/08 13:23:43;;;;;;;13.43;6.10;;;;;;;;;;4436798;32;20109;-71
2023/06/08 13:26:08;;;;;;;11.67;6.47;;;;;;;;;;4435690;32;20402;-72
2023/06/08 13:28:33;;;;;;;13.40;6.47;;;;;;;;;;4435761;32;20215;-71
2023/06/08 13:30:59;;;;;;;17.52;6.22;;;;;;;;;;4435327;32;20093;-72
2023/06/08 13:33:24;;;;;;;12.98;6.05;;;;;;;;;;4426753;32;20033;-71
2023/06/08 13:35:49;;;;;;;20.02;6.60;;;;;;;;;;4433966;32;20071;-72
2023/06/08 13:38:15;;;;;;;10.77;6.32;;;;;;;;;;4436401;32;20070;-72
2023/06/08 13:40:40;;;;;;;21.55;6.65;;;;;;;;;;4435915;32;20057;-72
2023/06/08 13:43:09;;;;;;;11.65;6.03;;;;;;;;;;4434342;32;20075;-72
2023/06/08 13:45:35;;;;;;;14.10;5.85;;;;;;;;;;4437365;32;20378;-72
2023/06/08 13:48:01;;;;;;;13.93;6.68;;;;;;;;;;4437125;32;20423;-71
2023/06/08 13:50:27;;;;;;;13.30;6.43;;;;;;;;;;4435228;32;20027;-72
2023/06/08 13:52:56;;;;;;;12.82;6.37;;;;;;;;;;4436734;32;20022;-72
2023/06/08 13:55:23;;;;;;;10.23;6.57;;;;;;;;;;4435249;32;20405;-71
2023/06/08 13:57:48;;;;;;;15.88;7.03;;;;;;;;;;4436448;32;20375;-72
2023/06/08 14:00:14;;;;;;;12.33;6.73;;;;;;;;;;4447010;32;20017;-72
2023/06/08 14:02:39;;;;;;;11.20;5.97;;;;;;;;;;4449293;32;20772;-71
2023/06/08 14:05:05;;;;;;;14.45;6.32;;;;;;;;;;4450339;32;20339;-72
2023/06/08 14:07:30;;;;;;;14.48;5.70;;;;;;;;;;4451025;32;20065;-71
2023/06/08 14:09:55;;;;;;;14.63;5.73;;;;;;;;;;4450505;32;20014;-71
2023/06/08 14:12:24;;;;;;;11.77;5.50;;;;;;;;;;4450362;32;20144;-71
2023/06/08 14:14:49;;;;;;;12.55;5.43;;;;;;;;;;4435149;32;20083;-71
2023/06/08 14:17:15;;;;;;;11.12;6.00;;;;;;;;;;4434968;32;20036;-72
2023/06/08 14:19:40;;;;;;;11.60;5.60;;;;;;;;;;4421110;32;20061;-73
2023/06/08 14:22:05;;;;;;;11.95;6.15;;;;;;;;;;4435307;32;20387;-72
2023/06/08 14:24:31;;;;;;;11.27;5.78;;;;;;;;;;4435273;32;20497;-72